Date,TemperatureHighF,TemperatureAvgF,TemperatureLowF,DewpointHighF,DewpointAvgF,DewpointLowF,HumidityHigh,HumidityAvg,HumidityLow,PressureMaxIn,PressureMinIn,WindSpeedMaxMPH,WindSpeedAvgMPH,GustSpeedMaxMPH,PrecipitationSumIn
2013-7-1,66.6,56.7,13.5,55.3,34.6,-58.7,83,60,1,29.85,29.71,8,8,8,0.00
2013-7-2,64.8,59.3,32.0,53.0,51.1,-47.5,79,76,2,29.91,29.85,8,8,8,0.00
2013-7-7,68.5,62.1,30.9,50.0,43.3,-10.5,74,52,15,29.74,29.71,8,8,8,0.00
2013-7-8,68.7,59.3,32.0,50.0,37.5,-40.6,75,53,3,29.94,29.56,8,8,8,0.00
2013-7-11,64.9,64.6,64.4,42.6,41.3,38.7,45,43,38,29.85,29.56,8,8,0,0.00
2013-7-12,68.2,59.9,33.1,49.3,41.6,8.4,80,53,33,29.88,29.74,8,8,8,0.00
2013-7-13,66.6,58.7,32.0,51.1,44.3,-47.5,80,62,2,30.00,29.85,9,8,9,0.00
2013-7-14,66.7,56.8,32.0,49.7,41.2,-35.6,84,61,4,29.88,29.80,8,8,8,0.00
2013-7-15,81.0,61.1,32.0,50.5,33.6,-35.6,85,47,4,29.83,29.65,13,8,13,0.00
2013-7-16,86.0,64.2,32.0,44.8,30.6,-35.6,80,39,4,29.65,29.53,8,8,8,0.00
2013-7-18,68.0,61.0,32.0,53.2,39.4,-47.5,85,50,2,30.00,29.91,8,8,8,0.00
2013-7-19,62.6,55.7,32.0,50.6,39.5,-58.7,77,65,1,29.94,29.88,8,8,8,0.00
2013-7-20,61.9,58.1,32.0,52.1,49.3,-47.5,80,73,2,29.85,29.56,8,8,8,0.00
2013-7-21,65.8,58.6,32.0,52.3,47.6,-35.6,82,70,4,29.77,29.71,8,8,8,0.00
2013-7-22,64.9,51.7,32.0,51.8,25.4,-47.5,81,53,2,29.85,29.71,8,8,8,0.04
2013-7-23,66.0,54.8,32.0,50.6,33.4,-58.7,80,61,1,29.85,29.77,8,8,8,0.00
2013-7-24,65.1,56.8,32.0,51.1,42.3,-58.7,81,67,1,29.88,29.74,8,8,8,0.00
2013-7-25,69.1,59.3,13.5,52.3,45.1,-47.5,81,63,2,29.94,29.80,10,8,10,0.00
2013-7-26,58.1,48.9,33.1,50.4,42.9,18.2,84,80,54,29.88,29.56,8,8,8,0.00
2013-7-27,69.6,59.2,32.0,49.7,42.9,-35.6,81,60,4,29.88,29.77,9,8,9,0.00